createdAt,value
2019-04-21T00:01:52.850Z,11.03
2019-04-21T00:04:34.529Z,9.45
2019-04-21T00:07:28.062Z,9.85
2019-04-21T00:12:22.615Z,10.50
2019-04-21T00:14:43.775Z,10.43
2019-04-21T00:17:07.798Z,9.50
2019-04-21T00:19:40.864Z,9.35
2019-04-21T00:22:24.777Z,9.28
2019-04-21T00:24:49.745Z,9.38
2019-04-21T00:27:25.136Z,9.13
2019-04-21T00:29:58.046Z,9.35
2019-04-21T00:32:18.862Z,8.20
2019-04-21T00:34:34.273Z,8.53
2019-04-21T00:37:12.318Z,9.03
2019-04-21T00:42:21.434Z,8.93
2019-04-21T00:44:39.860Z,8.53
2019-04-21T00:47:25.112Z,8.98
2019-04-21T00:49:54.236Z,8.85
2019-04-21T00:52:42.970Z,9.65
2019-04-21T00:55:08.809Z,9.80
2019-04-21T00:57:33.772Z,9.18
2019-04-21T00:59:51.715Z,9.60
2019-04-21T01:02:25.636Z,8.95
2019-04-21T01:05:00.202Z,9.80
2019-04-21T01:07:19.499Z,9.63
2019-04-21T01:09:45.273Z,10.32
2019-04-21T01:12:19.066Z,9.58
2019-04-21T01:14:57.099Z,9.93
2019-04-21T01:17:17.984Z,9.20
2019-04-21T01:19:41.161Z,9.28
2019-04-21T01:21:53.329Z,9.55
2019-04-21T01:24:30.744Z,9.55
2019-04-21T01:27:02.253Z,8.83
2019-04-21T01:29:41.762Z,8.73
2019-04-21T01:32:13.536Z,9.38
2019-04-21T01:34:39.432Z,10.05
2019-04-21T01:37:28.013Z,9.68
2019-04-21T01:39:58.409Z,9.33
2019-04-21T01:42:21.136Z,10.32
2019-04-21T01:44:53.403Z,9.43
2019-04-21T01:47:17.375Z,9.55
2019-04-21T01:49:46.667Z,9.05
2019-04-21T01:52:28.436Z,11.10
2019-04-21T01:54:57.645Z,9.95
2019-04-21T01:57:27.944Z,9.30
2019-04-21T01:59:54.254Z,10.15
2019-04-21T02:02:29.332Z,9.68
2019-04-21T02:05:05.812Z,10.72
2019-04-21T02:07:26.873Z,11.63
2019-04-21T02:10:00.779Z,10.53
2019-04-21T02:12:25.548Z,11.63
2019-04-21T02:15:00.780Z,12.95
2019-04-21T02:17:25.929Z,11.33
2019-04-21T02:19:47.980Z,11.00
2019-04-21T02:22:19.245Z,12.00
2019-04-21T02:24:58.110Z,10.45
2019-04-21T02:27:21.833Z,10.85
2019-04-21T02:29:52.022Z,9.33
2019-04-21T02:32:26.159Z,8.03
2019-04-21T02:34:59.824Z,8.70
2019-04-21T02:37:38.407Z,8.88
2019-04-21T02:39:56.761Z,8.43
2019-04-21T02:42:22.283Z,8.00
2019-04-21T02:44:51.427Z,7.80
2019-04-21T02:47:27.398Z,8.23
2019-04-21T02:52:36.787Z,7.67
2019-04-21T02:57:18.541Z,7.92
2019-04-21T03:05:01.727Z,6.85
2019-04-21T03:07:42.799Z,6.92
2019-04-21T03:09:57.926Z,7.37
2019-04-21T03:17:29.552Z,8.35
2019-04-21T03:22:25.133Z,7.30
2019-04-21T03:27:43.038Z,7.40
2019-04-21T03:37:23.479Z,6.10
2019-04-21T03:39:56.807Z,6.20
2019-04-21T03:42:25.669Z,6.10
2019-04-21T03:44:45.295Z,6.40
2019-04-21T03:47:26.896Z,5.75
2019-04-21T03:55:07.051Z,6.35
2019-04-21T03:57:32.068Z,6.35
2019-04-21T04:00:09.096Z,6.47
2019-04-21T04:02:35.120Z,6.10
2019-04-21T04:05:15.051Z,5.92
2019-04-21T04:07:49.901Z,6.40
2019-04-21T04:10:08.236Z,6.00
2019-04-21T04:12:34.373Z,5.90
2019-04-21T04:15:24.281Z,6.28
2019-04-21T04:17:36.806Z,5.62
2019-04-21T04:20:04.288Z,5.90
2019-04-21T04:22:41.661Z,5.62
2019-04-21T04:25:07.768Z,5.80
2019-04-21T04:27:46.869Z,5.87
2019-04-21T04:30:04.327Z,6.25
2019-04-21T04:32:28.386Z,6.10
2019-04-21T04:35:03.843Z,5.83
2019-04-21T04:37:32.660Z,6.40
2019-04-21T04:40:31.472Z,7.70
2019-04-21T04:45:30.696Z,9.08
2019-04-21T04:48:00.265Z,10.48
2019-04-21T04:50:29.908Z,14.07
2019-04-21T04:52:56.731Z,15.08
2019-04-21T04:55:26.264Z,16.73
2019-04-21T05:02:58.212Z,14.10
2019-04-21T05:08:08.464Z,12.85
2019-04-21T05:10:22.313Z,14.45
2019-04-21T05:12:43.872Z,13.50
2019-04-21T05:15:11.494Z,15.13
2019-04-21T05:17:49.179Z,14.15
2019-04-21T05:22:41.206Z,13.08
2019-04-21T05:24:57.994Z,14.15
2019-04-21T05:27:34.995Z,12.80
2019-04-21T05:30:08.395Z,13.98
2019-04-21T05:32:45.804Z,12.95
2019-04-21T05:35:14.530Z,13.00
2019-04-21T05:38:02.046Z,13.13
2019-04-21T05:40:29.101Z,12.60
2019-04-21T05:43:04.398Z,11.90
2019-04-21T05:45:38.736Z,11.83
2019-04-21T05:48:17.183Z,11.78
2019-04-21T05:50:38.137Z,12.70
2019-04-21T05:53:15.038Z,10.78
2019-04-21T05:55:46.376Z,11.03
2019-04-21T05:58:09.795Z,11.22
2019-04-21T06:01:10.300Z,11.05
2019-04-21T06:03:09.865Z,10.90
2019-04-21T06:05:44.574Z,11.18
2019-04-21T06:08:07.209Z,11.90
2019-04-21T06:10:37.747Z,11.28
2019-04-21T06:13:06.065Z,12.20
2019-04-21T06:15:41.720Z,11.63
2019-04-21T06:18:05.056Z,12.00
2019-04-21T06:20:27.623Z,11.08
2019-04-21T06:22:56.620Z,10.65
2019-04-21T06:27:58.923Z,10.72
2019-04-21T06:30:27.729Z,10.30
2019-04-21T06:33:06.450Z,10.88
2019-04-21T06:35:41.276Z,10.25
2019-04-21T06:37:59.637Z,10.40
2019-04-21T06:40:30.790Z,10.03
2019-04-21T06:43:07.918Z,10.30
2019-04-21T06:45:27.610Z,9.90
2019-04-21T06:47:57.796Z,10.10
2019-04-21T06:50:24.238Z,10.35
2019-04-21T06:52:54.948Z,9.93
2019-04-21T06:55:22.912Z,10.30
2019-04-21T06:57:56.125Z,8.53
2019-04-21T07:00:19.138Z,7.78
2019-04-21T07:03:00.042Z,8.70
2019-04-21T07:05:21.696Z,8.95
2019-04-21T07:07:54.706Z,8.10
2019-04-21T07:10:16.949Z,7.90
2019-04-21T07:12:48.270Z,7.72
2019-04-21T07:15:09.928Z,8.00
2019-04-21T07:17:38.824Z,8.30
2019-04-21T07:20:12.216Z,7.95
2019-04-21T07:22:44.693Z,7.37
2019-04-21T07:25:15.392Z,8.10
2019-04-21T07:27:43.167Z,7.97
2019-04-21T07:32:56.583Z,6.22
2019-04-21T07:35:25.561Z,6.28
2019-04-21T07:37:54.075Z,6.55
2019-04-21T07:40:22.263Z,5.25
2019-04-21T07:42:47.773Z,5.83
2019-04-21T07:45:16.880Z,5.67
2019-04-21T07:47:54.902Z,6.12
2019-04-21T07:50:31.502Z,4.90
2019-04-21T07:53:19.553Z,3.58
2019-04-21T07:55:35.337Z,4.63
2019-04-21T07:58:02.600Z,4.80
2019-04-21T08:00:45.301Z,4.10
2019-04-21T08:03:09.184Z,3.90
2019-04-21T08:05:53.764Z,4.25
2019-04-21T08:08:01.483Z,5.10
2019-04-21T08:10:34.972Z,4.47
2019-04-21T08:13:14.675Z,4.50
2019-04-21T08:15:41.638Z,4.83
2019-04-21T08:18:10.190Z,4.05
2019-04-21T08:20:40.192Z,4.12
2019-04-21T08:23:05.962Z,4.65
2019-04-21T08:25:41.132Z,4.22
2019-04-21T08:28:05.712Z,4.17
2019-04-21T08:31:01.425Z,4.47
2019-04-21T08:33:38.922Z,4.80
2019-04-21T08:36:11.670Z,4.80
2019-04-21T08:38:31.300Z,4.92
2019-04-21T08:40:55.875Z,4.92
2019-04-21T08:43:35.536Z,4.60
2019-04-21T08:45:57.199Z,3.87
2019-04-21T08:48:22.621Z,4.33
2019-04-21T08:51:00.618Z,4.45
2019-04-21T08:56:05.742Z,5.22
2019-04-21T08:58:34.459Z,5.08
2019-04-21T09:01:08.757Z,4.97
2019-04-21T09:06:27.399Z,4.53
2019-04-21T09:14:13.124Z,4.12
2019-04-21T09:16:44.384Z,4.70
2019-04-21T09:24:21.807Z,4.08
2019-04-21T09:26:48.093Z,4.00
2019-04-21T09:29:13.103Z,4.87
2019-04-21T09:31:33.894Z,4.62
2019-04-21T09:34:00.467Z,4.62
2019-04-21T09:36:35.214Z,4.92
2019-04-21T09:39:03.859Z,4.83
2019-04-21T09:41:25.998Z,4.65
2019-04-21T09:43:55.838Z,5.80
2019-04-21T09:46:23.615Z,5.40
2019-04-21T09:48:59.286Z,5.40
2019-04-21T09:51:21.398Z,4.72
2019-04-21T09:53:57.199Z,4.72
2019-04-21T09:56:31.437Z,4.53
2019-04-21T09:58:53.255Z,4.78
2019-04-21T10:01:22.787Z,4.25
2019-04-21T10:03:50.270Z,4.75
2019-04-21T10:06:17.361Z,4.22
2019-04-21T10:08:44.646Z,4.28
2019-04-21T10:11:14.138Z,3.90
2019-04-21T10:13:42.397Z,4.10
2019-04-21T10:18:19.401Z,3.80
2019-04-21T10:20:47.045Z,3.37
2019-04-21T10:23:16.130Z,3.55
2019-04-21T10:25:46.242Z,3.35
2019-04-21T10:28:14.895Z,2.90
2019-04-21T10:30:42.858Z,2.77
2019-04-21T10:33:12.522Z,3.02
2019-04-21T10:35:41.350Z,3.40
2019-04-21T10:38:21.797Z,3.30
2019-04-21T10:40:39.256Z,3.22
2019-04-21T10:43:11.610Z,2.83
2019-04-21T10:45:36.929Z,2.90
2019-04-21T10:48:07.039Z,3.10
2019-04-21T10:50:34.846Z,2.90
2019-04-21T10:53:07.421Z,2.98
2019-04-21T10:55:55.671Z,3.47
2019-04-21T10:58:08.747Z,3.45
2019-04-21T11:00:36.707Z,2.85
2019-04-21T11:03:11.366Z,3.00
2019-04-21T11:05:40.744Z,3.77
2019-04-21T11:08:21.601Z,3.83
2019-04-21T11:10:38.207Z,2.62
2019-04-21T11:13:08.279Z,3.35
2019-04-21T11:15:36.995Z,3.12
2019-04-21T11:18:06.112Z,3.35
2019-04-21T11:20:35.188Z,3.60
2019-04-21T11:23:04.001Z,3.50
2019-04-21T11:25:33.723Z,3.60
2019-04-21T11:28:02.954Z,3.98
2019-04-21T11:30:31.725Z,4.17
2019-04-21T11:32:59.534Z,4.45
2019-04-21T11:35:28.450Z,4.72
2019-04-21T11:38:06.088Z,4.55
2019-04-21T11:40:27.865Z,4.62
2019-04-21T11:42:57.653Z,4.90
2019-04-21T11:45:30.553Z,4.10
2019-04-21T11:48:08.110Z,3.70
2019-04-21T11:50:37.011Z,3.45
2019-04-21T11:53:05.365Z,3.25
2019-04-21T11:55:38.319Z,3.30
2019-04-21T11:58:03.555Z,4.28
2019-04-21T12:00:32.054Z,4.30
2019-04-21T12:03:01.620Z,3.67
2019-04-21T12:05:30.178Z,3.77
2019-04-21T12:08:00.189Z,4.00
2019-04-21T12:10:29.245Z,3.62
2019-04-21T12:12:57.183Z,4.12
2019-04-21T12:15:27.098Z,3.70
2019-04-21T12:17:56.460Z,4.03
2019-04-21T12:20:24.613Z,3.80
2019-04-21T12:22:54.839Z,3.65
2019-04-21T12:25:23.265Z,3.72
2019-04-21T12:27:52.397Z,4.15
2019-04-21T12:30:21.858Z,3.90
2019-04-21T12:32:58.101Z,3.67
2019-04-21T12:35:26.269Z,3.92
2019-04-21T12:37:56.358Z,4.33
2019-04-21T12:40:24.333Z,3.80
2019-04-21T12:42:54.781Z,3.58
2019-04-21T12:45:22.357Z,3.58
2019-04-21T12:47:52.409Z,3.90
2019-04-21T12:50:21.371Z,3.75
2019-04-21T12:52:49.625Z,3.58
2019-04-21T12:55:19.604Z,4.10
2019-04-21T12:58:17.753Z,3.75
2019-04-21T13:00:47.127Z,3.55
2019-04-21T13:03:15.872Z,4.25
2019-04-21T13:05:45.369Z,4.10
2019-04-21T13:08:13.630Z,4.00
2019-04-21T13:10:42.494Z,3.90
2019-04-21T13:13:12.165Z,4.22
2019-04-21T13:15:40.212Z,3.58
2019-04-21T13:18:10.108Z,3.77
2019-04-21T13:20:38.263Z,3.65
2019-04-21T13:23:08.023Z,3.52
2019-04-21T13:25:36.050Z,3.40
2019-04-21T13:28:05.083Z,3.75
2019-04-21T13:30:33.872Z,3.87
2019-04-21T13:33:03.272Z,3.72
2019-04-21T13:35:33.149Z,3.72
2019-04-21T13:38:02.508Z,3.58
2019-04-21T13:40:53.388Z,3.77
2019-04-21T13:43:10.278Z,3.83
2019-04-21T13:45:37.504Z,3.75
2019-04-21T13:48:06.616Z,3.92
2019-04-21T13:50:35.347Z,3.60
2019-04-21T13:53:04.950Z,3.60
2019-04-21T13:55:36.786Z,4.40
2019-04-21T13:58:04.182Z,3.98
2019-04-21T14:00:31.829Z,4.03
2019-04-21T14:03:00.892Z,4.47
2019-04-21T14:05:30.718Z,4.33
2019-04-21T14:07:58.701Z,3.67
2019-04-21T14:10:27.540Z,3.87
2019-04-21T14:12:56.408Z,3.67
2019-04-21T14:15:26.262Z,4.00
2019-04-21T14:17:54.892Z,3.40
2019-04-21T14:20:23.197Z,4.08
2019-04-21T14:22:53.891Z,4.30
2019-04-21T14:25:21.665Z,4.67
2019-04-21T14:27:51.971Z,4.78
2019-04-21T14:30:20.536Z,4.27
2019-04-21T14:32:49.827Z,4.20
2019-04-21T14:35:18.821Z,4.50
2019-04-21T14:37:46.693Z,4.25
2019-04-21T14:40:20.734Z,4.65
2019-04-21T14:42:44.426Z,4.22
2019-04-21T14:45:17.000Z,3.87
2019-04-21T14:47:54.288Z,3.60
2019-04-21T14:50:26.323Z,3.92
2019-04-21T14:53:01.986Z,3.58
2019-04-21T14:55:31.083Z,3.67
2019-04-21T14:57:59.064Z,3.62
2019-04-21T15:00:28.996Z,3.47
2019-04-21T15:02:57.876Z,4.10
2019-04-21T15:05:25.624Z,3.70
2019-04-21T15:07:55.158Z,3.70
2019-04-21T15:10:26.970Z,4.12
2019-04-21T15:12:52.352Z,4.33
2019-04-21T15:15:21.476Z,5.08
2019-04-21T15:17:51.545Z,4.62
2019-04-21T15:20:20.140Z,5.00
2019-04-21T15:22:48.327Z,4.70
2019-04-21T15:25:18.219Z,5.33
2019-04-21T15:27:46.658Z,4.70
2019-04-21T15:30:14.868Z,4.75
2019-04-21T15:32:44.421Z,5.40
2019-04-21T15:35:13.123Z,5.03
2019-04-21T15:37:42.082Z,5.05
2019-04-21T15:40:18.226Z,5.20
2019-04-21T15:42:39.628Z,4.35
2019-04-21T15:45:10.628Z,4.65
2019-04-21T15:47:40.112Z,4.37
2019-04-21T15:50:12.622Z,4.53
2019-04-21T15:52:37.956Z,4.37
2019-04-21T15:55:14.773Z,4.85
2019-04-21T15:57:49.011Z,4.72
2019-04-21T16:00:26.776Z,5.25
2019-04-21T16:02:54.886Z,5.45
2019-04-21T16:05:24.562Z,4.90
2019-04-21T16:07:54.091Z,5.50
2019-04-21T16:10:34.319Z,5.08
2019-04-21T16:12:52.012Z,5.25
2019-04-21T16:15:20.823Z,5.33
2019-04-21T16:17:49.119Z,5.05
2019-04-21T16:20:18.071Z,4.72
2019-04-21T16:22:48.518Z,4.65
2019-04-21T16:25:17.041Z,4.78
2019-04-21T16:27:45.472Z,4.70
2019-04-21T16:30:13.682Z,4.53
2019-04-21T16:32:43.860Z,4.00
2019-04-21T16:35:14.377Z,4.95
2019-04-21T16:37:41.583Z,4.30
2019-04-21T16:40:09.598Z,4.12
2019-04-21T16:42:38.483Z,4.10
2019-04-21T16:45:07.727Z,4.15
2019-04-21T16:47:37.904Z,3.87
2019-04-21T16:50:06.026Z,4.25
2019-04-21T16:52:41.079Z,4.53
2019-04-21T16:55:14.976Z,4.05
2019-04-21T16:57:59.595Z,4.15
2019-04-21T17:00:29.018Z,3.95
2019-04-21T17:02:50.391Z,3.95
2019-04-21T17:05:18.283Z,3.80
2019-04-21T17:07:47.136Z,3.83
2019-04-21T17:10:17.038Z,4.00
2019-04-21T17:12:45.572Z,3.70
2019-04-21T17:15:28.252Z,4.35
2019-04-21T17:18:00.414Z,4.70
2019-04-21T17:20:23.908Z,3.55
2019-04-21T17:22:41.742Z,3.67
2019-04-21T17:25:10.533Z,3.72
2019-04-21T17:27:38.994Z,3.92
2019-04-21T17:30:08.447Z,3.92
2019-04-21T17:32:42.373Z,3.25
2019-04-21T17:35:08.001Z,3.50
2019-04-21T17:37:36.256Z,3.72
2019-04-21T17:40:06.928Z,3.55
2019-04-21T17:42:43.253Z,3.98
2019-04-21T17:45:03.607Z,4.37
2019-04-21T17:47:39.870Z,4.87
2019-04-21T17:52:16.290Z,5.03
2019-04-21T17:54:48.391Z,4.70
2019-04-21T17:57:34.913Z,4.58
2019-04-21T18:00:04.740Z,4.35
2019-04-21T18:02:38.604Z,5.07
2019-04-21T18:05:02.369Z,10.53
2019-04-21T18:07:31.609Z,6.22
2019-04-21T18:10:00.177Z,3.95
2019-04-21T18:12:24.032Z,3.92
2019-04-21T18:14:38.086Z,4.00
2019-04-21T18:17:06.564Z,5.25
2019-04-21T18:19:36.847Z,6.12
2019-04-21T18:22:10.763Z,8.40
2019-04-21T18:24:50.190Z,12.47
2019-04-21T18:27:11.440Z,10.93
2019-04-21T18:29:40.058Z,9.48
2019-04-21T18:32:10.476Z,13.08
2019-04-21T18:35:15.370Z,13.18
2019-04-21T18:38:07.118Z,5.58
2019-04-21T18:40:31.106Z,7.20
2019-04-21T18:43:30.804Z,6.33
2019-04-21T18:45:55.365Z,8.15
2019-04-21T18:48:19.376Z,8.03
2019-04-21T18:50:50.710Z,12.50
2019-04-21T18:53:32.448Z,12.78
2019-04-21T18:55:48.167Z,11.03
2019-04-21T18:58:15.616Z,8.68
2019-04-21T19:00:44.169Z,6.15
2019-04-21T19:03:14.022Z,5.40
2019-04-21T19:05:47.815Z,6.97
2019-04-21T19:08:27.881Z,8.98
2019-04-21T19:11:03.944Z,12.70
2019-04-21T19:13:40.118Z,12.47
2019-04-21T19:16:19.911Z,11.18
2019-04-21T19:20:54.262Z,5.83
2019-04-21T19:23:36.339Z,4.97
2019-04-21T19:25:55.547Z,4.95
2019-04-21T19:28:17.977Z,4.80
2019-04-21T19:30:56.316Z,5.15
2019-04-21T19:33:14.416Z,5.35
2019-04-21T19:35:29.701Z,4.92
2019-04-21T19:38:03.932Z,4.97
2019-04-21T19:40:40.891Z,5.22
2019-04-21T19:43:03.614Z,5.17
2019-04-21T19:45:36.768Z,5.07
2019-04-21T19:48:13.668Z,5.00
2019-04-21T19:50:42.425Z,4.97
2019-04-21T19:52:59.753Z,5.37
2019-04-21T19:55:20.446Z,5.20
2019-04-21T19:57:49.393Z,4.83
2019-04-21T20:00:19.296Z,4.92
2019-04-21T20:02:48.294Z,5.20
2019-04-21T20:05:29.765Z,4.85
2019-04-21T20:08:03.752Z,4.90
2019-04-21T20:10:35.010Z,4.50
2019-04-21T20:13:03.164Z,4.65
2019-04-21T20:15:36.140Z,4.62
2019-04-21T20:17:53.072Z,4.60
2019-04-21T20:20:11.194Z,4.35
2019-04-21T20:22:43.310Z,4.05
2019-04-21T20:25:13.589Z,4.60
2019-04-21T20:27:49.400Z,4.50
2019-04-21T20:30:24.579Z,4.90
2019-04-21T20:32:56.482Z,4.78
2019-04-21T20:35:35.214Z,5.08
2019-04-21T20:37:47.894Z,5.12
2019-04-21T20:40:15.993Z,5.45
2019-04-21T20:42:42.684Z,4.62
2019-04-21T20:47:38.710Z,5.50
2019-04-21T20:50:14.030Z,5.28
2019-04-21T20:52:50.918Z,5.00
2019-04-21T20:55:11.983Z,5.05
2019-04-21T20:57:41.020Z,4.97
2019-04-21T21:00:13.689Z,4.67
2019-04-21T21:02:49.276Z,4.90
2019-04-21T21:05:02.969Z,5.50
2019-04-21T21:07:57.045Z,5.20
2019-04-21T21:10:10.728Z,5.20
2019-04-21T21:12:47.738Z,5.30
2019-04-21T21:15:00.120Z,4.92
2019-04-21T21:20:07.585Z,5.15
2019-04-21T21:22:33.186Z,4.90
2019-04-21T21:25:07.184Z,5.30
2019-04-21T21:27:32.188Z,5.35
2019-04-21T21:30:02.550Z,5.12
2019-04-21T22:18:24.642Z,6.35
2019-04-21T22:20:52.275Z,6.50
2019-04-21T23:27:12.053Z,5.10
